createdAt,value
2023-01-25T00:02:23.514Z,90.66
2023-01-25T00:04:49.991Z,89.72
2023-01-25T00:07:16.487Z,89.66
2023-01-25T00:09:42.898Z,89.81
2023-01-25T00:12:09.442Z,89.47
2023-01-25T00:14:36.032Z,89.39
2023-01-25T00:17:02.431Z,89.67
2023-01-25T00:19:29.947Z,89.50
2023-01-25T00:21:56.484Z,89.64
2023-01-25T00:24:23.441Z,90.01
2023-01-25T00:26:49.934Z,89.80
2023-01-25T00:29:16.336Z,89.90
2023-01-25T00:31:48.950Z,89.46
2023-01-25T00:34:24.860Z,89.62
2023-01-25T00:37:12.146Z,89.43
2023-01-25T00:39:42.209Z,89.79
2023-01-25T00:42:11.020Z,89.17
2023-01-25T00:44:38.585Z,89.11
2023-01-25T00:47:08.007Z,89.61
2023-01-25T00:49:34.656Z,88.93
2023-01-25T00:52:01.125Z,89.07
2023-01-25T00:54:27.552Z,89.21
2023-01-25T00:56:56.233Z,89.20
2023-01-25T00:59:23.798Z,89.35
2023-01-25T01:01:50.892Z,89.42
2023-01-25T01:04:17.700Z,89.68
2023-01-25T01:06:47.959Z,89.97
2023-01-25T01:09:18.279Z,89.91
2023-01-25T01:11:45.479Z,89.77
2023-01-25T01:14:12.463Z,89.92
2023-01-25T01:16:39.241Z,89.36
2023-01-25T01:19:06.001Z,89.44
2023-01-25T01:21:32.900Z,90.13
2023-01-25T01:24:00.069Z,88.63
2023-01-25T01:26:27.483Z,89.17
2023-01-25T01:28:54.070Z,89.44
2023-01-25T01:31:23.209Z,88.92
2023-01-25T01:33:51.052Z,88.73
2023-01-25T01:36:18.829Z,89.86
2023-01-25T01:38:46.524Z,88.07
2023-01-25T01:41:13.804Z,87.89
2023-01-25T01:43:40.664Z,88.37
2023-01-25T01:46:16.122Z,88.21
2023-01-25T01:49:01.953Z,87.61
2023-01-25T01:51:43.262Z,87.53
2023-01-25T01:54:18.339Z,87.18
2023-01-25T01:57:05.479Z,87.18
2023-01-25T01:59:39.855Z,87.31
2023-01-25T02:02:07.162Z,87.77
2023-01-25T02:04:33.982Z,88.01
2023-01-25T02:07:07.386Z,88.43
2023-01-25T02:09:35.295Z,87.92
2023-01-25T02:12:02.364Z,87.60
2023-01-25T02:14:29.687Z,85.63
2023-01-25T02:16:57.106Z,87.65
2023-01-25T02:19:42.143Z,87.56
2023-01-25T02:22:10.808Z,86.84
2023-01-25T02:24:38.615Z,87.39
2023-01-25T02:27:05.724Z,87.28
2023-01-25T02:29:33.252Z,86.94
2023-01-25T02:32:03.378Z,86.92
2023-01-25T02:34:30.073Z,86.84
2023-01-25T02:36:57.308Z,88.34
2023-01-25T02:39:26.642Z,87.79
2023-01-25T02:41:53.173Z,87.84
2023-01-25T02:44:29.263Z,87.55
2023-01-25T02:46:56.620Z,88.07
2023-01-25T02:49:23.546Z,87.53
2023-01-25T02:51:55.882Z,87.46
2023-01-25T02:54:23.992Z,88.15
2023-01-25T02:56:50.583Z,87.59
2023-01-25T02:59:18.931Z,88.02
2023-01-25T03:01:45.740Z,87.33
2023-01-25T03:04:12.692Z,87.00
2023-01-25T03:06:39.845Z,87.86
2023-01-25T03:09:08.032Z,87.89
2023-01-25T03:11:34.827Z,87.33
2023-01-25T03:14:01.910Z,87.89
2023-01-25T03:16:30.861Z,87.62
2023-01-25T03:18:57.895Z,88.25
2023-01-25T03:21:24.668Z,88.33
2023-01-25T03:23:56.940Z,87.77
2023-01-25T03:26:23.967Z,87.61
2023-01-25T03:28:51.659Z,87.56
2023-01-25T03:31:19.330Z,87.51
2023-01-25T03:33:46.867Z,88.02
2023-01-25T03:36:13.475Z,87.86
2023-01-25T03:38:40.008Z,87.87
2023-01-25T03:41:07.844Z,87.75
2023-01-25T03:43:34.918Z,88.50
2023-01-25T03:46:01.993Z,88.71
2023-01-25T03:48:29.208Z,88.89
2023-01-25T03:50:58.663Z,88.22
2023-01-25T03:53:29.917Z,88.08
2023-01-25T03:56:08.321Z,88.70
2023-01-25T03:58:36.022Z,87.73
2023-01-25T04:01:04.037Z,88.39
2023-01-25T04:03:31.408Z,88.43
2023-01-25T04:05:58.035Z,88.03
2023-01-25T04:08:25.099Z,87.95
2023-01-25T04:10:53.012Z,87.31
2023-01-25T04:13:23.578Z,87.37
2023-01-25T04:15:49.936Z,87.89
2023-01-25T04:18:16.804Z,87.85
2023-01-25T04:20:44.184Z,87.93
2023-01-25T04:23:11.350Z,88.03
2023-01-25T04:25:38.745Z,87.25
2023-01-25T04:28:05.377Z,87.63
2023-01-25T04:30:31.980Z,87.25
2023-01-25T04:33:05.770Z,87.32
2023-01-25T04:35:32.419Z,87.05
2023-01-25T04:37:59.714Z,87.32
2023-01-25T04:40:26.821Z,87.47
2023-01-25T04:42:53.213Z,87.04
2023-01-25T04:45:19.618Z,87.08
2023-01-25T04:47:46.831Z,88.02
2023-01-25T04:50:13.484Z,88.10
2023-01-25T04:52:40.155Z,87.25
2023-01-25T04:55:06.951Z,86.95
2023-01-25T04:57:33.904Z,86.79
2023-01-25T05:00:00.439Z,86.91
2023-01-25T05:02:27.467Z,87.43
2023-01-25T05:04:53.828Z,87.90
2023-01-25T05:07:20.251Z,87.53
2023-01-25T05:09:46.624Z,87.65
2023-01-25T05:12:13.697Z,87.37
2023-01-25T05:14:40.418Z,86.47
2023-01-25T05:17:08.691Z,86.48
2023-01-25T05:19:35.967Z,86.89
2023-01-25T05:22:03.658Z,87.00
2023-01-25T05:24:32.067Z,86.56
2023-01-25T05:27:01.601Z,87.04
2023-01-25T05:29:28.822Z,87.29
2023-01-25T05:31:55.502Z,87.61
2023-01-25T05:34:22.457Z,87.25
2023-01-25T05:36:49.050Z,87.12
2023-01-25T05:39:15.427Z,87.02
2023-01-25T05:41:41.746Z,87.12
2023-01-25T05:44:08.198Z,87.04
2023-01-25T05:46:34.787Z,87.34
2023-01-25T05:49:01.493Z,86.91
2023-01-25T05:51:27.911Z,88.03
2023-01-25T05:53:56.121Z,87.64
2023-01-25T05:56:23.015Z,87.48
2023-01-25T05:58:54.004Z,87.78
2023-01-25T06:01:20.895Z,87.35
2023-01-25T06:03:48.113Z,87.36
2023-01-25T06:06:14.565Z,87.79
2023-01-25T06:08:41.213Z,87.77
2023-01-25T06:11:12.519Z,87.39
2023-01-25T06:13:39.087Z,87.06
2023-01-25T06:16:07.011Z,87.23
2023-01-25T06:18:35.006Z,88.13
2023-01-25T06:21:02.372Z,87.99
2023-01-25T06:23:29.234Z,87.81
2023-01-25T06:26:05.468Z,87.55
2023-01-25T06:28:32.858Z,87.38
2023-01-25T06:31:11.728Z,87.10
2023-01-25T06:33:38.693Z,87.48
2023-01-25T06:36:07.947Z,87.12
2023-01-25T06:38:34.596Z,87.21
2023-01-25T06:41:02.735Z,86.51
2023-01-25T06:43:30.190Z,87.35
2023-01-25T06:46:00.949Z,87.01
2023-01-25T06:48:28.392Z,87.16
2023-01-25T06:51:02.079Z,86.88
2023-01-25T06:53:31.879Z,87.10
2023-01-25T06:56:01.372Z,87.40
2023-01-25T06:58:28.912Z,87.78
2023-01-25T07:01:03.847Z,87.65
2023-01-25T07:03:31.062Z,87.67
2023-01-25T07:06:02.212Z,87.35
2023-01-25T07:08:29.345Z,87.35
2023-01-25T07:10:59.190Z,86.64
2023-01-25T07:13:26.631Z,86.10
2023-01-25T07:15:54.896Z,85.63
2023-01-25T07:18:21.758Z,86.08
2023-01-25T07:20:48.144Z,86.71
2023-01-25T07:23:14.733Z,86.93
2023-01-25T07:25:48.755Z,87.23
2023-01-25T07:28:16.100Z,86.89
2023-01-25T07:30:43.240Z,86.59
2023-01-25T07:33:10.774Z,86.43
2023-01-25T07:35:37.575Z,86.93
2023-01-25T07:38:04.271Z,85.46
2023-01-25T07:40:30.777Z,85.56
2023-01-25T07:42:58.694Z,85.38
2023-01-25T07:45:30.503Z,85.37
2023-01-25T07:47:58.800Z,85.85
2023-01-25T07:50:26.797Z,85.23
2023-01-25T07:52:54.111Z,85.15
2023-01-25T07:55:21.024Z,85.52
2023-01-25T07:57:47.978Z,85.35
2023-01-25T08:00:14.806Z,86.47
2023-01-25T08:02:41.540Z,87.05
2023-01-25T08:05:08.647Z,86.24
2023-01-25T08:07:35.447Z,86.21
2023-01-25T08:10:05.603Z,85.82
2023-01-25T08:12:34.579Z,84.14
2023-01-25T08:15:01.917Z,84.27
2023-01-25T08:17:31.913Z,84.16
2023-01-25T08:19:59.871Z,84.42
2023-01-25T08:22:27.572Z,84.61
2023-01-25T08:24:54.371Z,85.40
2023-01-25T08:27:20.898Z,84.01
2023-01-25T08:29:47.344Z,84.60
2023-01-25T08:32:13.702Z,84.80
2023-01-25T08:34:40.978Z,85.51
2023-01-25T08:37:07.467Z,84.62
2023-01-25T08:39:34.028Z,85.42
2023-01-25T08:42:00.446Z,84.80
2023-01-25T08:44:26.852Z,84.85
2023-01-25T08:46:53.224Z,83.95
2023-01-25T08:49:19.592Z,84.01
2023-01-25T08:51:47.269Z,84.61
2023-01-25T08:54:14.185Z,84.46
2023-01-25T08:56:41.122Z,84.20
2023-01-25T08:59:10.019Z,83.25
2023-01-25T09:01:36.540Z,83.83
2023-01-25T09:04:03.024Z,83.73
2023-01-25T09:06:30.522Z,83.26
2023-01-25T09:08:58.882Z,83.49
2023-01-25T09:11:25.473Z,83.84
2023-01-25T09:13:52.054Z,84.07
2023-01-25T09:16:27.935Z,84.99
2023-01-25T09:18:56.177Z,84.49
2023-01-25T09:21:22.741Z,82.71
2023-01-25T09:24:08.930Z,83.59
2023-01-25T09:26:39.150Z,83.81
2023-01-25T09:29:07.937Z,84.04
2023-01-25T09:31:35.401Z,85.37
2023-01-25T09:34:02.041Z,85.35
2023-01-25T09:36:28.613Z,85.11
2023-01-25T09:38:55.446Z,84.42
2023-01-25T09:41:58.376Z,84.15
2023-01-25T09:44:52.295Z,85.22
2023-01-25T09:47:27.804Z,85.03
2023-01-25T09:49:57.154Z,83.66
2023-01-25T09:52:42.795Z,84.24
2023-01-25T09:55:14.273Z,84.08
2023-01-25T09:57:42.909Z,84.05
2023-01-25T10:00:16.716Z,83.69
2023-01-25T10:02:52.085Z,82.66
2023-01-25T10:05:21.892Z,82.43
2023-01-25T10:07:58.763Z,83.45
2023-01-25T10:10:39.543Z,83.60
2023-01-25T10:13:11.973Z,82.90
2023-01-25T10:15:41.498Z,84.15
2023-01-25T10:18:23.276Z,83.58
2023-01-25T10:20:54.958Z,83.98
2023-01-25T10:23:39.581Z,83.56
2023-01-25T10:26:33.297Z,84.00
2023-01-25T10:29:11.093Z,85.21
2023-01-25T10:31:44.666Z,84.34
2023-01-25T10:34:22.011Z,83.99
2023-01-25T10:36:56.876Z,83.98
2023-01-25T10:39:34.102Z,83.36
2023-01-25T10:42:05.491Z,82.72
2023-01-25T10:44:36.647Z,82.43
2023-01-25T10:47:12.218Z,83.52
2023-01-25T10:49:51.387Z,82.68
2023-01-25T10:52:26.050Z,81.71
2023-01-25T10:55:14.231Z,81.98
2023-01-25T10:57:44.256Z,82.71
2023-01-25T11:00:42.328Z,82.80
2023-01-25T11:03:38.947Z,82.93
2023-01-25T11:06:06.409Z,82.92
2023-01-25T11:08:36.045Z,83.48
2023-01-25T11:11:25.629Z,83.69
2023-01-25T11:13:55.302Z,82.73
2023-01-25T11:16:32.073Z,81.42
2023-01-25T11:19:00.566Z,81.46
2023-01-25T11:21:31.869Z,82.77
2023-01-25T11:24:15.007Z,83.57
2023-01-25T11:26:41.711Z,83.39
2023-01-25T11:29:20.162Z,83.03
2023-01-25T11:31:49.348Z,82.88
2023-01-25T11:34:21.025Z,82.63
2023-01-25T11:37:18.475Z,82.79
2023-01-25T11:39:48.658Z,82.58
2023-01-25T11:42:24.172Z,82.95
2023-01-25T11:45:08.463Z,82.17
2023-01-25T11:47:53.491Z,81.06
2023-01-25T11:50:19.849Z,81.95
2023-01-25T11:53:14.466Z,81.96
2023-01-25T11:55:49.602Z,82.02
2023-01-25T11:58:40.569Z,81.91
2023-01-25T12:01:38.645Z,82.13
2023-01-25T12:04:36.657Z,82.44
2023-01-25T12:07:05.503Z,82.39
2023-01-25T12:09:46.643Z,82.60
2023-01-25T12:12:18.972Z,82.19
2023-01-25T12:15:16.581Z,81.67
2023-01-25T12:18:04.255Z,83.11
2023-01-25T12:20:36.888Z,83.11
2023-01-25T12:23:22.208Z,81.72
2023-01-25T12:26:10.540Z,82.00
2023-01-25T12:28:43.540Z,81.05
2023-01-25T12:31:23.738Z,80.73
2023-01-25T12:34:03.644Z,80.74
2023-01-25T12:36:44.222Z,80.25
2023-01-25T12:39:20.878Z,80.61
2023-01-25T12:42:15.294Z,80.53
2023-01-25T12:44:45.167Z,79.43
2023-01-25T12:47:20.682Z,79.63
2023-01-25T12:50:13.659Z,80.72
2023-01-25T12:52:52.595Z,81.52
2023-01-25T12:55:19.387Z,78.72
2023-01-25T12:58:00.897Z,79.64
2023-01-25T13:00:35.523Z,79.55
2023-01-25T13:03:31.737Z,79.78
2023-01-25T13:06:26.194Z,79.67
2023-01-25T13:09:03.868Z,79.20
2023-01-25T13:11:33.816Z,78.69
2023-01-25T13:14:15.864Z,79.00
2023-01-25T13:16:51.855Z,79.55
2023-01-25T13:19:29.567Z,78.16
2023-01-25T13:21:58.332Z,78.82
2023-01-25T13:24:32.617Z,79.20
2023-01-25T13:27:01.792Z,79.40
2023-01-25T13:29:42.845Z,78.60
2023-01-25T13:32:12.412Z,79.20
2023-01-25T13:34:39.339Z,79.19
2023-01-25T13:37:26.202Z,79.29
2023-01-25T13:39:57.526Z,78.87
2023-01-25T13:42:25.670Z,79.86
2023-01-25T13:45:01.933Z,79.99
2023-01-25T13:47:37.873Z,79.56
2023-01-25T13:50:21.158Z,78.51
2023-01-25T13:53:17.735Z,78.41
2023-01-25T13:55:49.848Z,78.53
2023-01-25T13:58:28.291Z,80.00
2023-01-25T14:00:57.893Z,80.16
2023-01-25T14:03:59.592Z,79.91
2023-01-25T14:06:29.405Z,78.26
2023-01-25T14:08:58.408Z,78.74
2023-01-25T14:11:30.583Z,78.27
2023-01-25T14:14:17.910Z,78.32
2023-01-25T14:16:45.078Z,78.03
2023-01-25T14:19:25.788Z,77.22
2023-01-25T14:22:11.105Z,77.84
2023-01-25T14:24:37.702Z,78.67
2023-01-25T14:27:06.970Z,79.43
2023-01-25T14:29:35.349Z,79.73
2023-01-25T14:32:03.073Z,80.24
2023-01-25T14:34:29.518Z,81.42
2023-01-25T14:37:18.025Z,82.01
2023-01-25T14:39:45.651Z,82.10
2023-01-25T14:42:12.347Z,81.09
2023-01-25T14:44:38.963Z,81.67
2023-01-25T14:47:31.075Z,81.61
2023-01-25T14:50:32.585Z,81.42
2023-01-25T14:53:06.200Z,81.58
2023-01-25T14:55:32.621Z,81.72
2023-01-25T14:58:00.907Z,82.40
2023-01-25T15:00:31.953Z,82.70
2023-01-25T15:03:05.435Z,82.85
2023-01-25T15:05:34.632Z,82.17
2023-01-25T15:08:07.051Z,82.69
2023-01-25T15:10:56.916Z,82.23
2023-01-25T15:13:28.115Z,82.79
2023-01-25T15:15:59.867Z,81.90
2023-01-25T15:18:50.600Z,82.43
2023-01-25T15:21:19.787Z,82.17
2023-01-25T15:23:48.074Z,82.18
2023-01-25T15:26:19.570Z,82.32
2023-01-25T15:28:46.613Z,81.15
2023-01-25T15:31:18.626Z,81.77
2023-01-25T15:33:45.621Z,80.90
2023-01-25T15:36:13.157Z,81.71
2023-01-25T15:38:39.695Z,80.93
2023-01-25T15:41:06.234Z,81.29
2023-01-25T15:43:32.756Z,81.05
2023-01-25T15:46:00.331Z,81.37
2023-01-25T15:48:33.874Z,80.79
2023-01-25T15:51:00.759Z,81.25
2023-01-25T15:53:27.325Z,81.44
2023-01-25T15:56:18.263Z,80.94
2023-01-25T15:58:47.933Z,81.66
2023-01-25T16:01:14.917Z,80.36
2023-01-25T16:03:41.814Z,80.45
2023-01-25T16:06:32.614Z,81.02
2023-01-25T16:08:59.824Z,81.46
2023-01-25T16:11:27.488Z,81.41
2023-01-25T16:13:54.059Z,81.59
2023-01-25T16:16:22.442Z,81.72
2023-01-25T16:18:48.921Z,81.87
2023-01-25T16:21:15.728Z,81.20
2023-01-25T16:23:42.616Z,81.41
2023-01-25T16:26:19.735Z,81.82
2023-01-25T16:28:46.362Z,81.80
2023-01-25T16:31:31.441Z,82.36
2023-01-25T16:33:59.323Z,82.62
2023-01-25T16:36:25.825Z,82.43
2023-01-25T16:38:52.421Z,83.17
2023-01-25T16:41:20.407Z,83.55
2023-01-25T16:43:48.214Z,83.57
2023-01-25T16:46:19.012Z,83.96
2023-01-25T16:48:46.735Z,83.46
2023-01-25T16:51:16.259Z,83.59
2023-01-25T16:53:42.922Z,83.67
2023-01-25T16:56:15.822Z,83.36
2023-01-25T16:58:42.394Z,83.90
2023-01-25T17:01:10.650Z,83.51
2023-01-25T17:03:37.056Z,83.51
2023-01-25T17:06:04.962Z,83.32
2023-01-25T17:08:31.967Z,83.67
2023-01-25T17:11:03.960Z,84.28
2023-01-25T17:13:30.739Z,83.89
2023-01-25T17:15:57.318Z,83.85
2023-01-25T17:18:23.990Z,84.00
2023-01-25T17:21:01.541Z,83.87
2023-01-25T17:23:28.314Z,83.98
2023-01-25T17:25:55.711Z,83.78
2023-01-25T17:28:22.770Z,83.28
2023-01-25T17:30:53.463Z,83.76
2023-01-25T17:33:20.798Z,83.08
2023-01-25T17:35:47.621Z,83.88
2023-01-25T17:38:14.433Z,83.46
2023-01-25T17:40:42.019Z,83.74
2023-01-25T17:43:08.370Z,83.77
2023-01-25T17:45:39.215Z,83.79
2023-01-25T17:48:07.697Z,83.68
2023-01-25T17:50:36.355Z,83.71
2023-01-25T17:53:04.029Z,83.32
2023-01-25T17:55:30.520Z,84.33
2023-01-25T17:57:58.372Z,83.92
2023-01-25T18:00:24.814Z,83.65
2023-01-25T18:02:52.188Z,83.91
2023-01-25T18:05:18.716Z,83.70
2023-01-25T18:07:47.544Z,84.25
2023-01-25T18:10:14.053Z,84.46
2023-01-25T18:12:42.115Z,83.94
2023-01-25T18:15:09.577Z,84.11
2023-01-25T18:17:38.424Z,84.65
2023-01-25T18:20:06.363Z,84.95
2023-01-25T18:22:32.910Z,84.84
2023-01-25T18:24:59.376Z,84.65
2023-01-25T18:27:27.764Z,85.14
2023-01-25T18:30:22.999Z,84.51
2023-01-25T18:32:49.439Z,84.15
2023-01-25T18:35:15.824Z,84.41
2023-01-25T18:37:45.727Z,85.13
2023-01-25T18:40:13.993Z,84.37
2023-01-25T18:42:40.867Z,84.14
2023-01-25T18:45:09.412Z,84.19
2023-01-25T18:47:37.118Z,83.93
2023-01-25T18:50:03.871Z,84.40
2023-01-25T18:52:30.455Z,84.35
2023-01-25T18:54:57.375Z,84.59
2023-01-25T18:57:23.911Z,84.76
2023-01-25T18:59:50.370Z,84.84
2023-01-25T19:02:17.104Z,84.44
2023-01-25T19:04:44.066Z,84.52
2023-01-25T19:07:10.575Z,84.15
2023-01-25T19:09:37.127Z,84.66
2023-01-25T19:12:08.448Z,84.41
2023-01-25T19:14:36.226Z,84.90
2023-01-25T19:17:02.794Z,84.91
2023-01-25T19:19:32.231Z,84.72
2023-01-25T19:22:08.112Z,84.65
2023-01-25T19:24:34.826Z,84.35
2023-01-25T19:27:01.566Z,84.20
2023-01-25T19:29:29.263Z,84.71
2023-01-25T19:32:11.257Z,85.01
2023-01-25T19:34:41.063Z,85.11
2023-01-25T19:37:08.090Z,84.83
2023-01-25T19:39:34.741Z,85.01
2023-01-25T19:42:01.378Z,84.86
2023-01-25T19:44:28.074Z,84.83
2023-01-25T19:46:57.373Z,85.15
2023-01-25T19:49:24.397Z,84.80
2023-01-25T19:51:53.188Z,84.63
2023-01-25T19:54:21.764Z,84.60
2023-01-25T19:56:49.354Z,84.27
2023-01-25T19:59:18.633Z,84.77
2023-01-25T20:01:46.244Z,85.02
2023-01-25T20:04:15.331Z,85.36
2023-01-25T20:06:43.232Z,85.29
2023-01-25T20:09:14.151Z,85.38
2023-01-25T20:11:43.108Z,84.96
2023-01-25T20:14:12.127Z,84.73
2023-01-25T20:16:41.793Z,85.00
2023-01-25T20:19:12.824Z,85.48
2023-01-25T20:21:39.971Z,85.16
2023-01-25T20:24:10.162Z,84.64
2023-01-25T20:26:40.218Z,84.36
2023-01-25T20:29:08.062Z,84.98
2023-01-25T20:31:45.690Z,85.18
2023-01-25T20:34:17.426Z,85.24
2023-01-25T20:36:44.263Z,85.29
2023-01-25T20:39:16.482Z,84.69
2023-01-25T20:41:43.547Z,85.33
2023-01-25T20:44:11.842Z,85.66
2023-01-25T20:46:40.547Z,85.40
2023-01-25T20:49:12.148Z,85.62
2023-01-25T20:51:38.637Z,85.60
2023-01-25T20:54:05.115Z,85.44
2023-01-25T20:56:32.405Z,85.33
2023-01-25T20:58:58.959Z,85.46
2023-01-25T21:01:33.192Z,85.78
2023-01-25T21:04:00.924Z,85.72
2023-01-25T21:06:31.819Z,85.43
2023-01-25T21:08:59.311Z,85.49
2023-01-25T21:11:26.223Z,85.38
2023-01-25T21:13:53.944Z,85.58
2023-01-25T21:16:21.941Z,85.19
2023-01-25T21:18:54.523Z,85.85
2023-01-25T21:21:29.393Z,85.29
2023-01-25T21:23:58.981Z,85.34
2023-01-25T21:26:28.109Z,85.63
2023-01-25T21:28:55.338Z,85.32
2023-01-25T21:31:30.069Z,85.80
2023-01-25T21:33:56.955Z,85.85
2023-01-25T21:36:23.437Z,86.20
2023-01-25T21:38:52.004Z,85.18
2023-01-25T21:41:24.712Z,85.82
2023-01-25T21:44:12.955Z,85.85
2023-01-25T21:46:39.915Z,85.80
2023-01-25T21:49:27.390Z,85.49
2023-01-25T21:51:55.436Z,85.05
2023-01-25T21:54:27.095Z,85.44
2023-01-25T21:56:54.977Z,85.51
2023-01-25T21:59:22.026Z,85.65
2023-01-25T22:01:49.252Z,85.14
2023-01-25T22:04:17.761Z,85.31
2023-01-25T22:06:48.784Z,85.53
2023-01-25T22:09:15.868Z,85.10
2023-01-25T22:11:42.693Z,85.71
2023-01-25T22:14:09.164Z,85.87
2023-01-25T22:16:35.565Z,86.52
2023-01-25T22:19:01.980Z,86.87
2023-01-25T22:21:31.953Z,86.82
2023-01-25T22:23:59.889Z,86.76
2023-01-25T22:26:31.984Z,85.73
2023-01-25T22:29:00.653Z,86.57
2023-01-25T22:31:29.876Z,86.57
2023-01-25T22:33:58.723Z,86.48
2023-01-25T22:36:28.915Z,86.87
2023-01-25T22:38:55.397Z,86.45
2023-01-25T22:41:29.550Z,86.13
2023-01-25T22:43:56.114Z,86.63
2023-01-25T22:46:26.955Z,86.27
2023-01-25T22:48:53.811Z,85.54
2023-01-25T22:51:25.335Z,85.74
2023-01-25T22:53:53.944Z,85.38
2023-01-25T22:56:22.936Z,85.62
2023-01-25T22:58:50.216Z,85.20
2023-01-25T23:01:19.520Z,86.13
2023-01-25T23:03:46.429Z,85.71
2023-01-25T23:06:18.790Z,86.60
2023-01-25T23:08:45.750Z,86.14
2023-01-25T23:11:20.834Z,86.01
2023-01-25T23:14:06.360Z,86.57
2023-01-25T23:16:34.217Z,86.01
2023-01-25T23:19:00.935Z,85.62
2023-01-25T23:21:29.980Z,85.32
2023-01-25T23:24:03.664Z,85.57
2023-01-25T23:26:37.835Z,85.83
2023-01-25T23:29:12.091Z,86.02
2023-01-25T23:31:38.536Z,85.93
2023-01-25T23:34:06.478Z,85.92
2023-01-25T23:36:35.494Z,85.74
2023-01-25T23:39:02.011Z,86.10
2023-01-25T23:41:29.702Z,85.74
2023-01-25T23:43:56.511Z,85.04
2023-01-25T23:46:24.052Z,85.04
2023-01-25T23:48:51.059Z,85.41
2023-01-25T23:51:18.477Z,86.06
2023-01-25T23:53:45.331Z,85.92
2023-01-25T23:56:20.312Z,85.81
2023-01-25T23:58:47.102Z,86.18
